Time,TemperatureF,DewpointF,PressureIn,WindDirection,WindDirectionDegrees,WindSpeedMPH,WindSpeedGustMPH,Humidity,HourlyPrecipIn,Conditions,Clouds,dailyrainin,SoftwareType,DateUTC
2013-03-15 00:00:00,48.1,46.7,30.14,SSW,196,4.0,13.0,95,0.01,,---,0.01,VWS V14.01,2013-03-15 07:00:00,
2013-03-15 00:05:00,48.1,46.7,30.14,ESE,106,3.0,12.0,95,0.01,,---,0.00,VWS V14.01,2013-03-15 07:05:00,
2013-03-15 00:10:00,48.1,46.7,30.14,SSE,165,5.0,13.0,95,0.01,,---,0.00,VWS V14.01,2013-03-15 07:10:00,
2013-03-15 00:15:00,48.1,46.7,30.14,South,169,5.0,12.0,95,0.01,,---,0.00,VWS V14.01,2013-03-15 07:15:00,
2013-03-15 00:20:00,48.1,46.7,30.14,South,174,2.0,13.0,95,0.01,,---,0.00,VWS V14.01,2013-03-15 07:20:00,
2013-03-15 00:25:00,48.1,46.7,30.13,South,191,7.0,12.0,95,0.01,,---,0.00,VWS V14.01,2013-03-15 07:25:00,
2013-03-15 00:30:00,48.2,46.8,30.14,South,171,13.0,16.0,95,0.01,,---,0.00,VWS V14.01,2013-03-15 07:30:00,
2013-03-15 00:35:00,48.3,46.9,30.14,SW,231,2.0,13.0,95,0.01,,---,0.00,VWS V14.01,2013-03-15 07:35:00,
2013-03-15 00:40:00,48.3,46.9,30.14,SW,224,5.0,9.0,95,0.01,,---,0.00,VWS V14.01,2013-03-15 07:40:00,
2013-03-15 00:45:00,48.3,46.9,30.13,South,186,3.0,12.0,95,0.01,,---,0.00,VWS V14.01,2013-03-15 07:45:00,
2013-03-15 00:50:00,48.3,46.9,30.14,SSE,168,7.0,11.0,95,0.00,,---,0.00,VWS V14.01,2013-03-15 07:50:00,
2013-03-15 00:55:00,48.4,47.0,30.14,SSE,164,6.0,11.0,95,0.00,,---,0.00,VWS V14.01,2013-03-15 07:55:00,
2013-03-15 01:00:00,48.4,47.0,30.14,SSW,194,7.0,8.0,95,0.00,,---,0.00,VWS V14.01,2013-03-15 08:00:00,
2013-03-15 01:05:00,48.4,46.8,30.14,South,170,3.0,11.0,94,0.00,,---,0.00,VWS V14.01,2013-03-15 08:05:00,
2013-03-15 01:10:00,48.5,47.1,30.15,SE,139,6.0,12.0,95,0.00,,---,0.00,VWS V14.01,2013-03-15 08:10:00,
2013-03-15 01:15:00,48.5,47.1,30.15,SSE,167,3.0,12.0,95,0.00,,---,0.00,VWS V14.01,2013-03-15 08:15:00,
2013-03-15 01:20:00,48.5,47.1,30.15,SSW,199,3.0,12.0,95,0.00,,---,0.00,VWS V14.01,2013-03-15 08:20:00,
2013-03-15 01:25:00,48.5,47.1,30.15,SE,146,3.0,8.0,95,0.00,,---,0.00,VWS V14.01,2013-03-15 08:25:00,
2013-03-15 01:30:00,48.5,47.1,30.15,SSE,157,3.0,14.0,95,0.00,,---,0.00,VWS V14.01,2013-03-15 08:30:00,
2013-03-15 01:35:00,48.6,47.2,30.15,SSE,153,11.0,12.0,95,0.00,,---,0.00,VWS V14.01,2013-03-15 08:35:00,
2013-03-15 01:40:00,48.6,47.0,30.15,SSE,155,3.0,13.0,94,0.00,,---,0.00,VWS V14.01,2013-03-15 08:40:00,
2013-03-15 01:45:00,48.7,47.0,30.15,SSW,194,8.0,11.0,94,0.00,,---,0.00,VWS V14.01,2013-03-15 08:45:00,
2013-03-15 01:50:00,48.6,47.0,30.15,South,178,4.0,6.0,94,0.00,,---,0.00,VWS V14.01,2013-03-15 08:50:00,
2013-03-15 01:55:00,48.7,47.0,30.15,SSE,163,10.0,15.0,94,0.00,,---,0.00,VWS V14.01,2013-03-15 08:55:00,
2013-03-15 02:00:00,48.7,47.0,30.15,SSE,155,6.0,14.0,94,0.00,,---,0.00,VWS V14.01,2013-03-15 09:00:00,
2013-03-15 02:05:00,48.9,47.2,30.15,South,179,9.0,12.0,94,0.00,,---,0.00,VWS V14.01,2013-03-15 09:05:00,
2013-03-15 02:10:00,48.9,47.2,30.15,South,186,2.0,9.0,94,0.00,,---,0.00,VWS V14.01,2013-03-15 09:10:00,
2013-03-15 02:14:00,48.9,47.2,30.15,SE,146,2.0,12.0,94,0.00,,---,0.00,VWS V14.01,2013-03-15 09:14:00,
2013-03-15 02:15:00,48.9,47.2,30.15,West,261,2.0,12.0,94,0.00,,---,0.00,VWS V14.01,2013-03-15 09:15:00,
2013-03-15 02:19:00,48.9,47.2,30.15,SSE,147,6.0,7.0,94,0.00,,---,0.00,VWS V14.01,2013-03-15 09:19:00,
2013-03-15 02:20:00,48.9,47.2,30.16,WSW,237,2.0,7.0,94,0.00,,---,0.00,VWS V14.01,2013-03-15 09:20:00,
2013-03-15 02:24:00,49.0,47.3,30.15,WSW,242,1.0,10.0,94,0.00,,---,0.00,VWS V14.01,2013-03-15 09:24:00,
2013-03-15 02:25:00,49.0,47.3,30.16,WSW,240,1.0,10.0,94,0.00,,---,0.00,VWS V14.01,2013-03-15 09:25:00,
2013-03-15 02:29:00,49.0,47.3,30.16,SE,143,3.0,4.0,94,0.00,,---,0.00,VWS V14.01,2013-03-15 09:29:00,
2013-03-15 02:30:00,49.0,47.3,30.16,South,186,3.0,6.0,94,0.00,,---,0.00,VWS V14.01,2013-03-15 09:30:00,
2013-03-15 02:34:00,49.0,47.3,30.16,South,188,2.0,7.0,94,0.00,,---,0.00,VWS V14.01,2013-03-15 09:34:00,
2013-03-15 02:35:00,48.9,47.2,30.16,SSW,194,7.0,7.0,94,0.00,,---,0.00,VWS V14.01,2013-03-15 09:35:00,
2013-03-15 02:39:00,48.9,47.2,30.16,South,187,6.0,8.0,94,0.00,,---,0.00,VWS V14.01,2013-03-15 09:39:00,
2013-03-15 02:40:00,48.9,47.2,30.16,South,172,6.0,11.0,94,0.00,,---,0.00,VWS V14.01,2013-03-15 09:40:00,
2013-03-15 02:44:00,48.9,47.2,30.16,SW,234,1.0,6.0,94,0.00,,---,0.00,VWS V14.01,2013-03-15 09:44:00,
2013-03-15 02:45:00,48.9,47.2,30.16,SSE,160,6.0,6.0,94,0.00,,---,0.00,VWS V14.01,2013-03-15 09:45:00,
2013-03-15 02:49:00,48.8,47.2,30.16,SSE,157,3.0,9.0,94,0.00,,---,0.00,VWS V14.01,2013-03-15 09:49:00,
2013-03-15 02:50:00,48.8,47.2,30.16,South,174,0.0,9.0,94,0.00,,---,0.00,VWS V14.01,2013-03-15 09:50:00,
2013-03-15 02:54:00,48.8,47.2,30.16,SSE,160,4.0,6.0,94,0.00,,---,0.00,VWS V14.01,2013-03-15 09:54:00,
2013-03-15 02:55:00,48.8,47.2,30.16,SW,232,2.0,6.0,94,0.00,,---,0.00,VWS V14.01,2013-03-15 09:55:00,
2013-03-15 02:59:00,48.8,47.2,30.16,West,278,2.0,7.0,94,0.00,,---,0.00,VWS V14.01,2013-03-15 09:59:00,
2013-03-15 03:00:00,48.8,47.2,30.16,SSW,213,1.0,7.0,94,0.00,,---,0.00,VWS V14.01,2013-03-15 10:00:00,
2013-03-15 03:04:00,48.8,47.2,30.16,SSE,154,0.0,7.0,94,0.00,,---,0.00,VWS V14.01,2013-03-15 10:04:00,
2013-03-15 03:05:00,48.8,47.2,30.16,ESE,117,3.0,7.0,94,0.00,,---,0.00,VWS V14.01,2013-03-15 10:05:00,
2013-03-15 03:09:00,48.8,47.2,30.16,SSE,162,2.0,9.0,94,0.00,,---,0.00,VWS V14.01,2013-03-15 10:09:00,
2013-03-15 03:10:00,48.8,47.2,30.16,SE,136,3.0,9.0,94,0.00,,---,0.00,VWS V14.01,2013-03-15 10:10:00,
2013-03-15 03:14:00,48.7,47.0,30.16,WNW,288,2.0,5.0,94,0.00,,---,0.00,VWS V14.01,2013-03-15 10:14:00,
2013-03-15 03:15:00,48.7,47.0,30.16,SSE,164,1.0,5.0,94,0.00,,---,0.00,VWS V14.01,2013-03-15 10:15:00,
2013-03-15 03:19:00,48.7,47.0,30.16,SE,140,1.0,4.0,94,0.00,,---,0.00,VWS V14.01,2013-03-15 10:19:00,
2013-03-15 03:20:00,48.7,47.0,30.16,South,188,0.0,4.0,94,0.00,,---,0.00,VWS V14.01,2013-03-15 10:20:00,
2013-03-15 03:24:00,48.7,47.0,30.16,WSW,241,0.0,6.0,94,0.00,,---,0.00,VWS V14.01,2013-03-15 10:24:00,
2013-03-15 03:25:00,48.7,47.0,30.16,WSW,246,0.0,6.0,94,0.00,,---,0.00,VWS V14.01,2013-03-15 10:25:00,
2013-03-15 03:30:00,48.7,47.0,30.16,WSW,237,3.0,6.0,94,0.00,,---,0.00,VWS V14.01,2013-03-15 10:30:00,
2013-03-15 03:35:00,48.8,47.2,30.16,South,176,1.0,5.0,94,0.00,,---,0.00,VWS V14.01,2013-03-15 10:35:00,
2013-03-15 03:40:00,48.8,47.2,30.16,SW,227,1.0,7.0,94,0.00,,---,0.00,VWS V14.01,2013-03-15 10:40:00,
2013-03-15 03:45:00,48.9,47.2,30.16,WSW,256,1.0,4.0,94,0.00,,---,0.00,VWS V14.01,2013-03-15 10:45:00,
2013-03-15 03:50:00,48.9,47.2,30.16,SW,220,0.0,6.0,94,0.00,,---,0.00,VWS V14.01,2013-03-15 10:50:00,
2013-03-15 03:55:00,48.9,47.2,30.16,SSE,148,1.0,6.0,94,0.00,,---,0.00,VWS V14.01,2013-03-15 10:55:00,
2013-03-15 04:00:00,48.9,47.2,30.16,SSE,160,0.0,9.0,94,0.00,,---,0.00,VWS V14.01,2013-03-15 11:00:00,
2013-03-15 04:02:00,48.9,47.2,30.16,SSW,205,0.0,4.0,94,0.00,,---,0.00,VWS V14.01,2013-03-15 11:02:00,
2013-03-15 04:05:00,48.9,47.2,30.16,West,272,2.0,4.0,94,0.00,,---,0.00,VWS V14.01,2013-03-15 11:05:00,
2013-03-15 04:07:00,48.9,47.2,30.16,NW,316,1.0,3.0,94,0.00,,---,0.00,VWS V14.01,2013-03-15 11:07:00,
2013-03-15 04:10:00,48.9,47.2,30.16,South,188,0.0,5.0,94,0.00,,---,0.00,VWS V14.01,2013-03-15 11:10:00,
2013-03-15 04:12:00,48.9,47.2,30.16,SSW,209,0.0,2.0,94,0.00,,---,0.00,VWS V14.01,2013-03-15 11:12:00,
2013-03-15 04:15:00,48.9,47.2,30.16,WSW,240,0.0,3.0,94,0.00,,---,0.00,VWS V14.01,2013-03-15 11:15:00,
2013-03-15 04:17:00,48.9,47.2,30.16,SSW,205,0.0,4.0,94,0.00,,---,0.00,VWS V14.01,2013-03-15 11:17:00,
2013-03-15 04:20:00,48.9,47.2,30.16,SW,217,1.0,4.0,94,0.00,,---,0.00,VWS V14.01,2013-03-15 11:20:00,
2013-03-15 04:22:00,48.9,47.2,30.16,SSW,210,2.0,5.0,94,0.00,,---,0.00,VWS V14.01,2013-03-15 11:22:00,
2013-03-15 04:25:00,48.9,47.2,30.16,SW,231,6.0,8.0,94,0.00,,---,0.00,VWS V14.01,2013-03-15 11:25:00,
2013-03-15 04:27:00,48.9,47.2,30.16,South,177,2.0,6.0,94,0.00,,---,0.00,VWS V14.01,2013-03-15 11:27:00,
2013-03-15 04:30:00,48.9,47.2,30.16,WSW,249,4.0,6.0,94,0.00,,---,0.00,VWS V14.01,2013-03-15 11:30:00,
2013-03-15 04:32:00,48.9,47.2,30.16,SSE,166,2.0,4.0,94,0.00,,---,0.00,VWS V14.01,2013-03-15 11:32:00,
2013-03-15 04:35:00,48.9,47.2,30.15,SSE,158,2.0,8.0,94,0.00,,---,0.00,VWS V14.01,2013-03-15 11:35:00,
2013-03-15 04:37:00,48.9,47.2,30.15,SW,231,0.0,3.0,94,0.00,,---,0.00,VWS V14.01,2013-03-15 11:37:00,
2013-03-15 04:40:00,48.9,47.2,30.15,SSE,163,1.0,4.0,94,0.00,,---,0.00,VWS V14.01,2013-03-15 11:40:00,
2013-03-15 04:42:00,48.9,47.2,30.15,SSE,147,4.0,5.0,94,0.00,,---,0.00,VWS V14.01,2013-03-15 11:42:00,
2013-03-15 04:45:00,48.9,47.2,30.15,SSW,206,1.0,7.0,94,0.00,,---,0.00,VWS V14.01,2013-03-15 11:45:00,
2013-03-15 04:47:00,48.9,47.2,30.15,SSE,148,4.0,4.0,94,0.00,,---,0.00,VWS V14.01,2013-03-15 11:47:00,
2013-03-15 04:50:00,48.9,47.2,30.15,SSE,162,0.0,5.0,94,0.00,,---,0.00,VWS V14.01,2013-03-15 11:50:00,
2013-03-15 04:52:00,48.9,47.2,30.15,SSE,155,2.0,3.0,94,0.00,,---,0.00,VWS V14.01,2013-03-15 11:52:00,
2013-03-15 04:55:00,48.9,47.2,30.15,South,178,0.0,7.0,94,0.00,,---,0.00,VWS V14.01,2013-03-15 11:55:00,
2013-03-15 04:57:00,48.9,47.2,30.15,West,265,0.0,1.0,94,0.00,,---,0.00,VWS V14.01,2013-03-15 11:57:00,
2013-03-15 05:00:00,48.9,47.2,30.15,West,280,1.0,3.0,94,0.00,,---,0.00,VWS V14.01,2013-03-15 12:00:00,
2013-03-15 05:02:00,48.9,47.2,30.15,SSW,212,2.0,2.0,94,0.00,,---,0.00,VWS V14.01,2013-03-15 12:02:00,
2013-03-15 05:05:00,48.9,47.2,30.15,SSW,209,0.0,2.0,94,0.00,,---,0.00,VWS V14.01,2013-03-15 12:05:00,
2013-03-15 05:07:00,48.9,47.2,30.16,SE,127,1.0,1.0,94,0.00,,---,0.00,VWS V14.01,2013-03-15 12:07:00,
2013-03-15 05:10:00,48.8,47.2,30.15,WSW,242,0.0,3.0,94,0.00,,---,0.00,VWS V14.01,2013-03-15 12:10:00,
2013-03-15 05:12:00,48.8,47.2,30.15,WSW,242,1.0,1.0,94,0.00,,---,0.00,VWS V14.01,2013-03-15 12:12:00,
2013-03-15 05:15:00,48.8,47.2,30.16,SW,232,0.0,3.0,94,0.00,,---,0.00,VWS V14.01,2013-03-15 12:15:00,
2013-03-15 05:17:00,48.8,47.2,30.16,SW,232,1.0,1.0,94,0.00,,---,0.00,VWS V14.01,2013-03-15 12:17:00,
2013-03-15 05:20:00,48.7,47.0,30.16,South,176,0.0,2.0,94,0.00,,---,0.00,VWS V14.01,2013-03-15 12:20:00,
2013-03-15 05:22:00,48.8,47.2,30.16,SW,217,1.0,2.0,94,0.00,,---,0.00,VWS V14.01,2013-03-15 12:22:00,
2013-03-15 05:25:00,48.8,47.2,30.16,WNW,292,1.0,3.0,94,0.00,,---,0.00,VWS V14.01,2013-03-15 12:25:00,
2013-03-15 05:27:00,48.8,47.2,30.16,NNW,347,2.0,3.0,94,0.00,,---,0.00,VWS V14.01,2013-03-15 12:27:00,
2013-03-15 05:30:00,48.8,47.2,30.16,SW,223,2.0,3.0,94,0.00,,---,0.00,VWS V14.01,2013-03-15 12:30:00,
2013-03-15 05:32:00,48.8,47.2,30.16,WSW,251,1.0,2.0,94,0.00,,---,0.00,VWS V14.01,2013-03-15 12:32:00,
2013-03-15 05:35:00,48.7,47.0,30.16,West,276,1.0,2.0,94,0.00,,---,0.00,VWS V14.01,2013-03-15 12:35:00,
2013-03-15 05:37:00,48.7,47.0,30.16,SSW,198,0.0,2.0,94,0.00,,---,0.00,VWS V14.01,2013-03-15 12:37:00,
2013-03-15 05:40:00,48.8,47.2,30.17,SW,233,2.0,5.0,94,0.00,,---,0.00,VWS V14.01,2013-03-15 12:40:00,
2013-03-15 05:42:00,48.8,47.2,30.17,WSW,237,0.0,2.0,94,0.00,,---,0.00,VWS V14.01,2013-03-15 12:42:00,
2013-03-15 05:45:00,48.8,47.2,30.17,South,174,1.0,3.0,94,0.00,,---,0.00,VWS V14.01,2013-03-15 12:45:00,
2013-03-15 05:47:00,48.8,47.2,30.17,South,175,0.0,2.0,94,0.00,,---,0.00,VWS V14.01,2013-03-15 12:47:00,
2013-03-15 05:50:00,48.8,47.2,30.17,SW,226,0.0,5.0,94,0.00,,---,0.00,VWS V14.01,2013-03-15 12:50:00,
2013-03-15 05:52:00,48.7,47.0,30.17,South,177,0.0,1.0,94,0.00,,---,0.00,VWS V14.01,2013-03-15 12:52:00,
2013-03-15 05:55:00,48.8,47.2,30.17,SW,224,1.0,7.0,94,0.00,,---,0.00,VWS V14.01,2013-03-15 12:55:00,
2013-03-15 05:57:00,48.7,47.0,30.17,SE,129,1.0,2.0,94,0.00,,---,0.00,VWS V14.01,2013-03-15 12:57:00,
2013-03-15 06:00:00,48.7,47.0,30.17,SW,226,1.0,4.0,94,0.00,,---,0.00,VWS V14.01,2013-03-15 13:00:00,
2013-03-15 06:02:00,48.7,47.0,30.17,SE,139,1.0,3.0,94,0.00,,---,0.00,VWS V14.01,2013-03-15 13:02:00,
2013-03-15 06:05:00,48.7,47.0,30.17,SE,142,4.0,4.0,94,0.00,,---,0.00,VWS V14.01,2013-03-15 13:05:00,
2013-03-15 06:07:00,48.7,47.0,30.17,SSE,152,0.0,4.0,94,0.00,,---,0.00,VWS V14.01,2013-03-15 13:07:00,
2013-03-15 06:10:00,48.6,47.2,30.17,SSE,153,1.0,4.0,95,0.00,,---,0.00,VWS V14.01,2013-03-15 13:10:00,
2013-03-15 06:12:00,48.7,47.3,30.17,SSE,152,1.0,4.0,95,0.00,,---,0.00,VWS V14.01,2013-03-15 13:12:00,
2013-03-15 06:15:00,48.7,47.3,30.17,SSE,149,3.0,5.0,95,0.00,,---,0.00,VWS V14.01,2013-03-15 13:15:00,
2013-03-15 06:17:00,48.7,47.0,30.17,SSE,157,0.0,3.0,94,0.00,,---,0.00,VWS V14.01,2013-03-15 13:17:00,
2013-03-15 06:20:00,48.7,47.0,30.17,SSW,201,1.0,4.0,94,0.00,,---,0.00,VWS V14.01,2013-03-15 13:20:00,
2013-03-15 06:22:00,48.7,47.0,30.17,SW,236,0.0,2.0,94,0.00,,---,0.00,VWS V14.01,2013-03-15 13:22:00,
2013-03-15 06:25:00,48.7,47.0,30.17,SSE,153,0.0,2.0,94,0.00,,---,0.00,VWS V14.01,2013-03-15 13:25:00,
2013-03-15 06:27:00,48.7,47.0,30.17,SSW,210,1.0,4.0,94,0.00,,---,0.00,VWS V14.01,2013-03-15 13:27:00,
2013-03-15 06:30:00,48.7,47.0,30.17,SW,231,1.0,7.0,94,0.00,,---,0.00,VWS V14.01,2013-03-15 13:30:00,
2013-03-15 06:32:00,48.7,47.0,30.17,SE,145,2.0,5.0,94,0.00,,---,0.00,VWS V14.01,2013-03-15 13:32:00,
2013-03-15 06:35:00,48.7,47.0,30.17,SW,222,1.0,5.0,94,0.00,,---,0.00,VWS V14.01,2013-03-15 13:35:00,
2013-03-15 06:37:00,48.7,47.0,30.17,South,174,3.0,3.0,94,0.00,,---,0.00,VWS V14.01,2013-03-15 13:37:00,
2013-03-15 06:40:00,48.7,47.0,30.17,SSE,154,3.0,5.0,94,0.00,,---,0.00,VWS V14.01,2013-03-15 13:40:00,
2013-03-15 06:42:00,48.7,47.0,30.17,SSE,151,3.0,5.0,94,0.00,,---,0.00,VWS V14.01,2013-03-15 13:42:00,
2013-03-15 06:45:00,48.7,47.0,30.17,SSE,165,2.0,7.0,94,0.00,,---,0.00,VWS V14.01,2013-03-15 13:45:00,
2013-03-15 06:47:00,48.7,47.0,30.17,West,262,0.0,2.0,94,0.00,,---,0.00,VWS V14.01,2013-03-15 13:47:00,
2013-03-15 06:50:00,48.7,47.0,30.17,SSW,198,0.0,3.0,94,0.00,,---,0.00,VWS V14.01,2013-03-15 13:50:00,
2013-03-15 06:52:00,48.7,47.0,30.17,SSW,198,0.0,0.0,94,0.00,,---,0.00,VWS V14.01,2013-03-15 13:52:00,
2013-03-15 06:55:00,48.7,47.0,30.16,SW,233,0.0,4.0,94,0.00,,---,0.00,VWS V14.01,2013-03-15 13:55:00,
2013-03-15 06:57:00,48.7,47.0,30.16,SSE,158,0.0,3.0,94,0.00,,---,0.00,VWS V14.01,2013-03-15 13:57:00,
2013-03-15 07:00:00,48.7,47.0,30.16,South,186,2.0,5.0,94,0.00,,---,0.00,VWS V14.01,2013-03-15 14:00:00,
2013-03-15 07:02:00,48.7,47.0,30.17,South,180,0.0,2.0,94,0.00,,---,0.00,VWS V14.01,2013-03-15 14:02:00,
2013-03-15 07:05:00,48.7,47.0,30.16,SW,216,0.0,3.0,94,0.00,,---,0.00,VWS V14.01,2013-03-15 14:05:00,
2013-03-15 07:07:00,48.7,47.0,30.16,South,176,2.0,4.0,94,0.00,,---,0.00,VWS V14.01,2013-03-15 14:07:00,
2013-03-15 07:10:00,48.7,47.0,30.16,WSW,243,0.0,4.0,94,0.00,,---,0.00,VWS V14.01,2013-03-15 14:10:00,
2013-03-15 07:12:00,48.7,47.0,30.17,ESE,121,1.0,1.0,94,0.00,,---,0.00,VWS V14.01,2013-03-15 14:12:00,
2013-03-15 07:15:00,48.7,46.8,30.17,West,271,2.0,4.0,93,0.00,,---,0.00,VWS V14.01,2013-03-15 14:15:00,
2013-03-15 07:17:00,48.7,46.8,30.17,WSW,247,1.0,3.0,93,0.00,,---,0.00,VWS V14.01,2013-03-15 14:17:00,
2013-03-15 07:20:00,48.8,46.9,30.17,WSW,238,1.0,4.0,93,0.00,,---,0.00,VWS V14.01,2013-03-15 14:20:00,
2013-03-15 07:22:00,48.8,46.9,30.17,South,179,5.0,5.0,93,0.00,,---,0.00,VWS V14.01,2013-03-15 14:22:00,
2013-03-15 07:25:00,48.9,47.0,30.17,South,191,0.0,10.0,93,0.00,,---,0.00,VWS V14.01,2013-03-15 14:25:00,
2013-03-15 07:27:00,48.8,46.9,30.17,WSW,240,1.0,3.0,93,0.00,,---,0.00,VWS V14.01,2013-03-15 14:27:00,
2013-03-15 07:30:00,48.9,47.0,30.17,WSW,241,3.0,4.0,93,0.00,,---,0.00,VWS V14.01,2013-03-15 14:30:00,
2013-03-15 07:32:00,48.9,47.0,30.17,SE,136,1.0,3.0,93,0.00,,---,0.00,VWS V14.01,2013-03-15 14:32:00,
2013-03-15 07:35:00,48.9,47.0,30.17,West,269,0.0,6.0,93,0.00,,---,0.00,VWS V14.01,2013-03-15 14:35:00,
2013-03-15 07:37:00,48.9,47.0,30.17,SSW,211,0.0,4.0,93,0.00,,---,0.00,VWS V14.01,2013-03-15 14:37:00,
2013-03-15 07:40:00,48.9,47.0,30.17,SW,217,1.0,5.0,93,0.00,,---,0.00,VWS V14.01,2013-03-15 14:40:00,
2013-03-15 07:42:00,48.9,47.0,30.17,SW,225,2.0,5.0,93,0.00,,---,0.00,VWS V14.01,2013-03-15 14:42:00,
2013-03-15 07:45:00,48.9,47.0,30.17,South,173,0.0,6.0,93,0.00,,---,0.00,VWS V14.01,2013-03-15 14:45:00,
2013-03-15 07:47:00,48.9,47.0,30.17,WSW,257,3.0,4.0,93,0.00,,---,0.00,VWS V14.01,2013-03-15 14:47:00,
2013-03-15 07:50:00,48.9,46.7,30.17,WNW,302,1.0,6.0,92,0.00,,---,0.00,VWS V14.01,2013-03-15 14:50:00,
2013-03-15 07:52:00,48.9,47.0,30.17,SSW,203,1.0,1.0,93,0.00,,---,0.00,VWS V14.01,2013-03-15 14:52:00,
2013-03-15 07:55:00,48.8,46.9,30.17,WSW,257,1.0,4.0,93,0.00,,---,0.00,VWS V14.01,2013-03-15 14:55:00,
2013-03-15 07:57:00,48.8,46.9,30.17,SSW,205,6.0,7.0,93,0.00,,---,0.00,VWS V14.01,2013-03-15 14:57:00,
2013-03-15 08:00:00,48.8,46.9,30.17,West,274,1.0,7.0,93,0.00,,---,0.00,VWS V14.01,2013-03-15 15:00:00,
2013-03-15 08:02:00,48.7,46.8,30.17,WSW,242,1.0,3.0,93,0.00,,---,0.00,VWS V14.01,2013-03-15 15:02:00,
2013-03-15 08:05:00,48.7,46.8,30.17,West,259,0.0,7.0,93,0.00,,---,0.00,VWS V14.01,2013-03-15 15:05:00,
2013-03-15 08:07:00,48.7,46.8,30.17,SW,216,1.0,3.0,93,0.00,,---,0.00,VWS V14.01,2013-03-15 15:07:00,
2013-03-15 08:10:00,48.7,46.8,30.17,SE,134,3.0,3.0,93,0.00,,---,0.00,VWS V14.01,2013-03-15 15:10:00,
2013-03-15 08:12:00,48.7,46.8,30.17,WSW,240,2.0,3.0,93,0.00,,---,0.00,VWS V14.01,2013-03-15 15:12:00,
2013-03-15 08:15:00,48.6,46.7,30.17,SSE,150,3.0,5.0,93,0.00,,---,0.00,VWS V14.01,2013-03-15 15:15:00,
2013-03-15 08:17:00,48.6,46.7,30.17,WNW,282,1.0,3.0,93,0.00,,---,0.00,VWS V14.01,2013-03-15 15:17:00,
2013-03-15 08:20:00,48.5,46.6,30.18,SW,228,1.0,4.0,93,0.00,,---,0.00,VWS V14.01,2013-03-15 15:20:00,
2013-03-15 08:22:00,48.5,46.6,30.18,SW,232,1.0,3.0,93,0.00,,---,0.00,VWS V14.01,2013-03-15 15:22:00,
2013-03-15 08:25:00,48.4,46.5,30.18,SSE,160,1.0,6.0,93,0.00,,---,0.00,VWS V14.01,2013-03-15 15:25:00,
2013-03-15 08:27:00,48.4,46.5,30.18,SSE,161,0.0,1.0,93,0.00,,---,0.00,VWS V14.01,2013-03-15 15:27:00,
2013-03-15 08:30:00,48.4,46.8,30.18,South,170,0.0,4.0,94,0.00,,---,0.00,VWS V14.01,2013-03-15 15:30:00,
2013-03-15 08:32:00,48.4,46.8,30.18,SSE,152,2.0,2.0,94,0.00,,---,0.00,VWS V14.01,2013-03-15 15:32:00,
2013-03-15 08:35:00,48.4,46.8,30.18,South,179,2.0,5.0,94,0.00,,---,0.00,VWS V14.01,2013-03-15 15:35:00,
2013-03-15 08:37:00,48.4,46.8,30.18,SE,139,1.0,2.0,94,0.00,,---,0.00,VWS V14.01,2013-03-15 15:37:00,
2013-03-15 08:40:00,48.5,46.9,30.18,SSE,154,5.0,6.0,94,0.00,,---,0.00,VWS V14.01,2013-03-15 15:40:00,
2013-03-15 08:42:00,48.5,46.6,30.18,South,180,5.0,8.0,93,0.00,,---,0.00,VWS V14.01,2013-03-15 15:42:00,
2013-03-15 08:45:00,48.6,46.7,30.18,SSE,158,3.0,8.0,93,0.00,,---,0.00,VWS V14.01,2013-03-15 15:45:00,
2013-03-15 08:47:00,48.6,46.7,30.18,South,172,3.0,5.0,93,0.00,,---,0.00,VWS V14.01,2013-03-15 15:47:00,
2013-03-15 08:50:00,48.7,46.8,30.18,SSW,207,2.0,5.0,93,0.00,,---,0.00,VWS V14.01,2013-03-15 15:50:00,
2013-03-15 08:52:00,48.8,46.9,30.18,SSE,166,4.0,6.0,93,0.00,,---,0.00,VWS V14.01,2013-03-15 15:52:00,
2013-03-15 08:55:00,48.9,47.0,30.19,SW,220,1.0,6.0,93,0.00,,---,0.00,VWS V14.01,2013-03-15 15:55:00,
2013-03-15 08:57:00,48.9,47.0,30.19,South,171,1.0,2.0,93,0.00,,---,0.00,VWS V14.01,2013-03-15 15:57:00,
2013-03-15 09:00:00,49.1,46.9,30.19,SSE,149,2.0,4.0,92,0.00,,---,0.00,VWS V14.01,2013-03-15 16:00:00,
2013-03-15 09:02:00,49.2,47.0,30.19,SSW,200,3.0,7.0,92,0.00,,---,0.00,VWS V14.01,2013-03-15 16:02:00,
2013-03-15 09:05:00,49.3,47.1,30.19,South,172,4.0,8.0,92,0.00,,---,0.00,VWS V14.01,2013-03-15 16:05:00,
2013-03-15 09:07:00,49.3,47.1,30.19,SSE,163,3.0,5.0,92,0.00,,---,0.00,VWS V14.01,2013-03-15 16:07:00,
2013-03-15 09:10:00,49.5,47.0,30.19,SSE,161,1.0,9.0,91,0.00,,---,0.00,VWS V14.01,2013-03-15 16:10:00,
2013-03-15 09:12:00,49.5,47.3,30.19,WSW,249,2.0,6.0,92,0.00,,---,0.00,VWS V14.01,2013-03-15 16:12:00,
2013-03-15 09:15:00,49.6,47.4,30.19,ESE,113,1.0,6.0,92,0.00,,---,0.00,VWS V14.01,2013-03-15 16:15:00,
2013-03-15 09:17:00,49.6,47.1,30.19,SE,124,4.0,6.0,91,0.00,,---,0.00,VWS V14.01,2013-03-15 16:17:00,
2013-03-15 09:20:00,49.6,47.1,30.19,SSW,202,2.0,7.0,91,0.00,,---,0.00,VWS V14.01,2013-03-15 16:20:00,
2013-03-15 09:22:00,49.6,47.4,30.20,SSW,195,2.0,3.0,92,0.00,,---,0.00,VWS V14.01,2013-03-15 16:22:00,
2013-03-15 09:25:00,49.7,47.5,30.20,SSW,198,3.0,6.0,92,0.00,,---,0.00,VWS V14.01,2013-03-15 16:25:00,
2013-03-15 09:27:00,49.7,47.5,30.20,SE,136,2.0,8.0,92,0.00,,---,0.00,VWS V14.01,2013-03-15 16:27:00,
2013-03-15 09:30:00,49.7,47.2,30.20,SSE,161,8.0,8.0,91,0.00,,---,0.00,VWS V14.01,2013-03-15 16:30:00,
2013-03-15 09:32:00,49.7,47.2,30.20,South,176,7.0,8.0,91,0.00,,---,0.00,VWS V14.01,2013-03-15 16:32:00,
2013-03-15 09:35:00,49.7,47.5,30.20,SSE,153,3.0,8.0,92,0.00,,---,0.00,VWS V14.01,2013-03-15 16:35:00,
2013-03-15 09:37:00,49.7,47.5,30.20,South,184,5.0,6.0,92,0.00,,---,0.00,VWS V14.01,2013-03-15 16:37:00,
2013-03-15 09:40:00,49.7,47.5,30.20,SSE,167,4.0,11.0,92,0.00,,---,0.00,VWS V14.01,2013-03-15 16:40:00,
2013-03-15 09:42:00,49.7,47.5,30.20,SE,137,4.0,6.0,92,0.00,,---,0.00,VWS V14.01,2013-03-15 16:42:00,
2013-03-15 09:45:00,49.7,47.2,30.20,South,172,4.0,6.0,91,0.00,,---,0.00,VWS V14.01,2013-03-15 16:45:00,
2013-03-15 09:47:00,49.7,47.5,30.20,SSE,148,3.0,8.0,92,0.00,,---,0.00,VWS V14.01,2013-03-15 16:47:00,
2013-03-15 09:50:00,49.7,47.2,30.20,South,174,8.0,11.0,91,0.00,,---,0.00,VWS V14.01,2013-03-15 16:50:00,
2013-03-15 09:52:00,49.7,47.2,30.20,South,189,3.0,9.0,91,0.00,,---,0.00,VWS V14.01,2013-03-15 16:52:00,
2013-03-15 09:55:00,49.8,47.6,30.20,South,185,4.0,9.0,92,0.00,,---,0.00,VWS V14.01,2013-03-15 16:55:00,
2013-03-15 09:57:00,49.9,47.7,30.20,SE,136,5.0,9.0,92,0.00,,---,0.00,VWS V14.01,2013-03-15 16:57:00,
2013-03-15 10:00:00,49.9,47.4,30.20,SSE,150,8.0,9.0,91,0.00,,---,0.00,VWS V14.01,2013-03-15 17:00:00,
2013-03-15 10:02:00,50.0,47.5,30.20,SSW,206,5.0,8.0,91,0.00,,---,0.00,VWS V14.01,2013-03-15 17:02:00,
2013-03-15 10:05:00,50.1,47.6,30.20,SSE,150,3.0,9.0,91,0.00,,---,0.00,VWS V14.01,2013-03-15 17:05:00,
2013-03-15 10:07:00,50.2,47.7,30.20,SSW,203,7.0,8.0,91,0.00,,---,0.00,VWS V14.01,2013-03-15 17:07:00,
2013-03-15 10:10:00,50.4,47.6,30.20,SE,143,2.0,8.0,90,0.00,,---,0.00,VWS V14.01,2013-03-15 17:10:00,
2013-03-15 10:12:00,50.5,48.0,30.20,SE,136,1.0,4.0,91,0.00,,---,0.00,VWS V14.01,2013-03-15 17:12:00,
2013-03-15 10:15:00,50.7,47.9,30.20,SE,136,2.0,7.0,90,0.00,,---,0.00,VWS V14.01,2013-03-15 17:15:00,
2013-03-15 10:17:00,50.7,48.2,30.20,South,177,4.0,8.0,91,0.00,,---,0.00,VWS V14.01,2013-03-15 17:17:00,
2013-03-15 10:20:00,50.8,48.0,30.20,South,169,5.0,8.0,90,0.00,,---,0.00,VWS V14.01,2013-03-15 17:20:00,
2013-03-15 10:22:00,50.9,48.1,30.20,SE,144,3.0,6.0,90,0.00,,---,0.00,VWS V14.01,2013-03-15 17:22:00,
2013-03-15 10:25:00,51.0,48.2,30.20,SE,129,4.0,8.0,90,0.00,,---,0.00,VWS V14.01,2013-03-15 17:25:00,
2013-03-15 10:27:00,51.1,48.3,30.20,SSE,152,3.0,7.0,90,0.00,,---,0.00,VWS V14.01,2013-03-15 17:27:00,
2013-03-15 10:30:00,51.3,48.5,30.20,South,172,2.0,8.0,90,0.00,,---,0.00,VWS V14.01,2013-03-15 17:30:00,
2013-03-15 10:32:00,51.4,48.6,30.20,SE,146,5.0,6.0,90,0.00,,---,0.00,VWS V14.01,2013-03-15 17:32:00,
2013-03-15 10:35:00,51.9,48.8,30.20,SSE,153,3.0,8.0,89,0.00,,---,0.00,VWS V14.01,2013-03-15 17:35:00,
2013-03-15 10:37:00,52.1,49.0,30.20,South,172,5.0,6.0,89,0.00,,---,0.00,VWS V14.01,2013-03-15 17:37:00,
2013-03-15 10:40:00,52.4,48.7,30.20,SSW,199,1.0,8.0,87,0.00,,---,0.00,VWS V14.01,2013-03-15 17:40:00,
2013-03-15 10:42:00,52.6,48.8,30.20,SW,218,3.0,3.0,87,0.00,,---,0.00,VWS V14.01,2013-03-15 17:42:00,
2013-03-15 10:45:00,52.9,48.8,30.20,SW,220,2.0,8.0,86,0.00,,---,0.00,VWS V14.01,2013-03-15 17:45:00,
2013-03-15 10:47:00,53.0,49.2,30.20,NNW,333,1.0,3.0,87,0.00,,---,0.00,VWS V14.01,2013-03-15 17:47:00,
2013-03-15 10:50:00,53.2,49.1,30.20,SW,219,0.0,6.0,86,0.00,,---,0.00,VWS V14.01,2013-03-15 17:50:00,
2013-03-15 10:52:00,53.2,49.1,30.20,SSE,160,9.0,9.0,86,0.00,,---,0.00,VWS V14.01,2013-03-15 17:52:00,
2013-03-15 10:55:00,53.3,49.2,30.20,WSW,252,1.0,9.0,86,0.00,,---,0.00,VWS V14.01,2013-03-15 17:55:00,
2013-03-15 10:57:00,53.3,48.9,30.19,South,191,3.0,8.0,85,0.00,,---,0.00,VWS V14.01,2013-03-15 17:57:00,
2013-03-15 11:00:00,53.2,48.8,30.19,SW,227,2.0,8.0,85,0.00,,---,0.00,VWS V14.01,2013-03-15 18:00:00,
2013-03-15 11:02:00,53.2,49.1,30.20,SSE,165,0.0,3.0,86,0.00,,---,0.00,VWS V14.01,2013-03-15 18:02:00,
2013-03-15 11:05:00,53.3,48.6,30.19,SSE,147,4.0,7.0,84,0.00,,---,0.00,VWS V14.01,2013-03-15 18:05:00,
2013-03-15 11:07:00,53.2,48.8,30.19,SW,231,2.0,5.0,85,0.00,,---,0.00,VWS V14.01,2013-03-15 18:07:00,
2013-03-15 11:10:00,53.2,48.8,30.19,SSE,163,1.0,7.0,85,0.00,,---,0.00,VWS V14.01,2013-03-15 18:10:00,
2013-03-15 11:12:00,53.2,48.8,30.19,South,190,3.0,5.0,85,0.00,,---,0.00,VWS V14.01,2013-03-15 18:12:00,
2013-03-15 11:15:00,53.4,49.0,30.20,ESE,118,1.0,8.0,85,0.00,,---,0.00,VWS V14.01,2013-03-15 18:15:00,
2013-03-15 11:17:00,53.5,49.1,30.20,ENE,58,1.0,3.0,85,0.00,,---,0.00,VWS V14.01,2013-03-15 18:17:00,
2013-03-15 11:20:00,53.5,49.1,30.20,SSE,151,2.0,6.0,85,0.00,,---,0.00,VWS V14.01,2013-03-15 18:20:00,
2013-03-15 11:22:00,53.5,48.8,30.20,South,173,4.0,7.0,84,0.00,,---,0.00,VWS V14.01,2013-03-15 18:22:00,
2013-03-15 11:25:00,53.5,49.1,30.19,SSE,160,3.0,8.0,85,0.00,,---,0.00,VWS V14.01,2013-03-15 18:25:00,
2013-03-15 11:27:00,53.5,48.8,30.19,South,170,3.0,5.0,84,0.00,,---,0.00,VWS V14.01,2013-03-15 18:27:00,
2013-03-15 11:30:00,53.5,48.8,30.19,ESE,114,5.0,6.0,84,0.00,,---,0.00,VWS V14.01,2013-03-15 18:30:00,
2013-03-15 11:32:00,53.4,48.7,30.19,SSW,210,1.0,7.0,84,0.00,,---,0.00,VWS V14.01,2013-03-15 18:32:00,
2013-03-15 11:35:00,53.5,48.8,30.19,South,176,2.0,7.0,84,0.00,,---,0.00,VWS V14.01,2013-03-15 18:35:00,
2013-03-15 11:37:00,53.6,48.9,30.19,WSW,240,0.0,7.0,84,0.00,,---,0.00,VWS V14.01,2013-03-15 18:37:00,
2013-03-15 11:40:00,53.4,48.7,30.19,SSE,162,7.0,9.0,84,0.00,,---,0.00,VWS V14.01,2013-03-15 18:40:00,
2013-03-15 11:42:00,53.5,48.8,30.19,SSW,198,5.0,7.0,84,0.00,,---,0.00,VWS V14.01,2013-03-15 18:42:00,
2013-03-15 11:45:00,53.5,48.8,30.19,East,84,3.0,8.0,84,0.00,,---,0.00,VWS V14.01,2013-03-15 18:45:00,
2013-03-15 11:47:00,53.5,48.8,30.19,South,186,6.0,9.0,84,0.00,,---,0.00,VWS V14.01,2013-03-15 18:47:00,
2013-03-15 11:50:00,53.5,48.8,30.19,SSE,166,9.0,11.0,84,0.00,,---,0.00,VWS V14.01,2013-03-15 18:50:00,
2013-03-15 11:52:00,53.5,48.8,30.19,SSE,157,1.0,11.0,84,0.00,,---,0.00,VWS V14.01,2013-03-15 18:52:00,
2013-03-15 11:55:00,53.6,48.9,30.19,SW,214,2.0,11.0,84,0.00,,---,0.00,VWS V14.01,2013-03-15 18:55:00,
2013-03-15 11:57:00,53.7,49.0,30.19,SW,223,2.0,9.0,84,0.00,,---,0.00,VWS V14.01,2013-03-15 18:57:00,
2013-03-15 12:00:00,53.9,49.2,30.19,WSW,252,2.0,9.0,84,0.00,,---,0.00,VWS V14.01,2013-03-15 19:00:00,
2013-03-15 12:02:00,54.0,49.0,30.19,South,186,1.0,8.0,83,0.00,,---,0.00,VWS V14.01,2013-03-15 19:02:00,
2013-03-15 12:05:00,54.3,49.3,30.19,SE,143,5.0,8.0,83,0.00,,---,0.00,VWS V14.01,2013-03-15 19:05:00,
2013-03-15 12:07:00,54.5,49.5,30.19,SSE,159,3.0,5.0,83,0.00,,---,0.00,VWS V14.01,2013-03-15 19:07:00,
2013-03-15 12:10:00,54.6,49.2,30.19,SSW,200,4.0,9.0,82,0.00,,---,0.00,VWS V14.01,2013-03-15 19:10:00,
2013-03-15 12:12:00,54.6,49.2,30.19,South,184,6.0,10.0,82,0.00,,---,0.00,VWS V14.01,2013-03-15 19:12:00,
2013-03-15 12:15:00,54.7,49.3,30.19,SSE,158,7.0,10.0,82,0.00,,---,0.00,VWS V14.01,2013-03-15 19:15:00,
2013-03-15 12:17:00,54.7,49.3,30.19,SSW,200,3.0,10.0,82,0.00,,---,0.00,VWS V14.01,2013-03-15 19:17:00,
2013-03-15 12:20:00,54.7,49.3,30.19,South,179,7.0,11.0,82,0.00,,---,0.00,VWS V14.01,2013-03-15 19:20:00,
2013-03-15 12:22:00,54.6,49.2,30.19,SE,126,3.0,8.0,82,0.00,,---,0.00,VWS V14.01,2013-03-15 19:22:00,
2013-03-15 12:25:00,54.6,49.2,30.19,SW,217,2.0,9.0,82,0.00,,---,0.00,VWS V14.01,2013-03-15 19:25:00,
2013-03-15 12:27:00,54.6,49.2,30.19,WSW,237,1.0,6.0,82,0.00,,---,0.00,VWS V14.01,2013-03-15 19:27:00,
2013-03-15 12:30:00,54.8,49.4,30.19,SSE,167,5.0,7.0,82,0.00,,---,0.00,VWS V14.01,2013-03-15 19:30:00,
2013-03-15 12:32:00,54.8,49.4,30.19,SW,216,4.0,9.0,82,0.00,,---,0.00,VWS V14.01,2013-03-15 19:32:00,
2013-03-15 12:35:00,54.8,49.7,30.19,SW,220,7.0,9.0,83,0.00,,---,0.00,VWS V14.01,2013-03-15 19:35:00,
2013-03-15 12:37:00,54.8,49.4,30.19,SW,236,3.0,10.0,82,0.00,,---,0.00,VWS V14.01,2013-03-15 19:37:00,
2013-03-15 12:40:00,54.8,49.7,30.19,SSW,213,0.0,10.0,83,0.00,,---,0.00,VWS V14.01,2013-03-15 19:40:00,
2013-03-15 12:42:00,54.8,49.4,30.19,WNW,297,2.0,8.0,82,0.00,,---,0.00,VWS V14.01,2013-03-15 19:42:00,
2013-03-15 12:45:00,54.8,49.4,30.19,SW,215,3.0,10.0,82,0.00,,---,0.00,VWS V14.01,2013-03-15 19:45:00,
2013-03-15 12:47:00,54.7,49.3,30.19,SSW,202,3.0,6.0,82,0.00,,---,0.00,VWS V14.01,2013-03-15 19:47:00,
2013-03-15 12:50:00,54.7,49.3,30.19,WSW,241,2.0,9.0,82,0.00,,---,0.00,VWS V14.01,2013-03-15 19:50:00,
2013-03-15 12:52:00,54.7,49.3,30.19,SSE,168,8.0,10.0,82,0.00,,---,0.00,VWS V14.01,2013-03-15 19:52:00,
2013-03-15 12:55:00,54.7,49.3,30.19,SE,136,6.0,11.0,82,0.00,,---,0.00,VWS V14.01,2013-03-15 19:55:00,
2013-03-15 12:57:00,54.7,49.3,30.19,SSE,155,4.0,6.0,82,0.00,,---,0.00,VWS V14.01,2013-03-15 19:57:00,
2013-03-15 13:00:00,54.8,49.4,30.19,SE,139,4.0,8.0,82,0.00,,---,0.00,VWS V14.01,2013-03-15 20:00:00,
2013-03-15 13:02:00,54.8,49.4,30.19,South,189,2.0,4.0,82,0.00,,---,0.00,VWS V14.01,2013-03-15 20:02:00,
2013-03-15 13:05:00,55.0,49.3,30.19,SSE,158,1.0,10.0,81,0.00,,---,0.00,VWS V14.01,2013-03-15 20:05:00,
2013-03-15 13:07:00,55.0,49.3,30.19,South,174,1.0,8.0,81,0.00,,---,0.00,VWS V14.01,2013-03-15 20:07:00,
2013-03-15 13:10:00,55.2,49.5,30.19,SSE,163,4.0,8.0,81,0.00,,---,0.00,VWS V14.01,2013-03-15 20:10:00,
2013-03-15 13:12:00,55.3,49.6,30.19,SSE,160,3.0,8.0,81,0.00,,---,0.00,VWS V14.01,2013-03-15 20:12:00,
2013-03-15 13:15:00,55.2,49.2,30.19,SSW,205,1.0,11.0,80,0.00,,---,0.00,VWS V14.01,2013-03-15 20:15:00,
2013-03-15 13:17:00,55.2,48.8,30.19,SW,228,3.0,14.0,79,0.00,,---,0.00,VWS V14.01,2013-03-15 20:17:00,
2013-03-15 13:20:00,55.1,49.0,30.19,South,178,2.0,14.0,80,0.00,,---,0.00,VWS V14.01,2013-03-15 20:20:00,
2013-03-15 13:22:00,55.2,49.5,30.19,SSW,196,9.0,9.0,81,0.00,,---,0.00,VWS V14.01,2013-03-15 20:22:00,
2013-03-15 13:25:00,55.3,49.6,30.19,SSW,212,8.0,9.0,81,0.00,,---,0.00,VWS V14.01,2013-03-15 20:25:00,
2013-03-15 13:27:00,55.4,49.3,30.19,SSE,165,6.0,10.0,80,0.00,,---,0.00,VWS V14.01,2013-03-15 20:27:00,
2013-03-15 13:30:00,55.5,49.1,30.19,SE,136,4.0,10.0,79,0.00,,---,0.00,VWS V14.01,2013-03-15 20:30:00,
2013-03-15 13:32:00,55.4,49.0,30.19,SSW,192,8.0,10.0,79,0.00,,---,0.00,VWS V14.01,2013-03-15 20:32:00,
2013-03-15 13:35:00,55.3,48.9,30.20,WSW,251,5.0,16.0,79,0.00,,---,0.00,VWS V14.01,2013-03-15 20:35:00,
2013-03-15 13:37:00,55.3,49.2,30.19,SE,141,4.0,7.0,80,0.00,,---,0.00,VWS V14.01,2013-03-15 20:37:00,
2013-03-15 13:40:00,55.4,49.3,30.19,SW,229,2.0,10.0,80,0.00,,---,0.00,VWS V14.01,2013-03-15 20:40:00,
2013-03-15 13:42:00,55.5,49.4,30.19,SW,232,1.0,7.0,80,0.00,,---,0.00,VWS V14.01,2013-03-15 20:42:00,
2013-03-15 13:45:00,55.5,49.1,30.19,SW,219,2.0,12.0,79,0.00,,---,0.00,VWS V14.01,2013-03-15 20:45:00,
2013-03-15 13:47:00,55.5,49.4,30.19,South,179,6.0,6.0,80,0.00,,---,0.00,VWS V14.01,2013-03-15 20:47:00,
2013-03-15 13:50:00,55.8,49.7,30.19,SE,136,6.0,11.0,80,0.00,,---,0.00,VWS V14.01,2013-03-15 20:50:00,
2013-03-15 13:52:00,55.9,49.2,30.19,WSW,252,2.0,7.0,78,0.00,,---,0.00,VWS V14.01,2013-03-15 20:52:00,
2013-03-15 13:55:00,56.2,49.4,30.19,South,182,5.0,10.0,78,0.00,,---,0.00,VWS V14.01,2013-03-15 20:55:00,
2013-03-15 13:57:00,56.3,49.5,30.19,South,184,3.0,8.0,78,0.00,,---,0.00,VWS V14.01,2013-03-15 20:57:00,
2013-03-15 14:00:00,56.3,49.5,30.19,SSW,207,1.0,8.0,78,0.00,,---,0.00,VWS V14.01,2013-03-15 21:00:00,
2013-03-15 14:02:00,56.5,49.7,30.19,SSW,200,9.0,11.0,78,0.00,,---,0.00,VWS V14.01,2013-03-15 21:02:00,
2013-03-15 14:05:00,56.6,49.5,30.19,SW,227,3.0,12.0,77,0.00,,---,0.00,VWS V14.01,2013-03-15 21:05:00,
2013-03-15 14:07:00,56.5,49.4,30.19,WNW,292,5.0,6.0,77,0.00,,---,0.00,VWS V14.01,2013-03-15 21:07:00,
2013-03-15 14:12:00,56.0,49.2,30.18,SSW,192,3.0,9.0,78,0.00,,---,0.00,VWS V14.01,2013-03-15 21:12:00,
2013-03-15 14:15:00,56.0,49.2,30.18,SSE,155,10.0,10.0,78,0.00,,---,0.00,VWS V14.01,2013-03-15 21:15:00,
2013-03-15 14:17:00,56.1,49.3,30.18,South,191,2.0,13.0,78,0.00,,---,0.00,VWS V14.01,2013-03-15 21:17:00,
2013-03-15 14:20:00,56.2,49.4,30.18,SSW,212,2.0,13.0,78,0.00,,---,0.00,VWS V14.01,2013-03-15 21:20:00,
2013-03-15 14:22:00,56.3,49.2,30.18,SE,131,2.0,10.0,77,0.00,,---,0.00,VWS V14.01,2013-03-15 21:22:00,
2013-03-15 14:25:00,56.4,49.6,30.18,South,191,3.0,10.0,78,0.00,,---,0.00,VWS V14.01,2013-03-15 21:25:00,
2013-03-15 14:27:00,56.4,49.3,30.18,SW,222,1.0,7.0,77,0.00,,---,0.00,VWS V14.01,2013-03-15 21:27:00,
2013-03-15 14:30:00,56.7,49.6,30.18,South,173,3.0,10.0,77,0.00,,---,0.00,VWS V14.01,2013-03-15 21:30:00,
2013-03-15 14:32:00,56.8,50.0,30.18,SW,234,2.0,4.0,78,0.00,,---,0.00,VWS V14.01,2013-03-15 21:32:00,
2013-03-15 14:35:00,56.9,49.4,30.18,SSW,197,5.0,10.0,76,0.00,,---,0.00,VWS V14.01,2013-03-15 21:35:00,
2013-03-15 14:37:00,56.9,49.4,30.18,SSE,154,9.0,9.0,76,0.00,,---,0.00,VWS V14.01,2013-03-15 21:37:00,
2013-03-15 14:40:00,56.7,49.6,30.18,SW,219,1.0,9.0,77,0.00,,---,0.00,VWS V14.01,2013-03-15 21:40:00,
2013-03-15 14:42:00,56.7,49.6,30.17,South,187,2.0,3.0,77,0.00,,---,0.00,VWS V14.01,2013-03-15 21:42:00,
2013-03-15 14:45:00,56.6,49.1,30.17,SW,221,3.0,7.0,76,0.00,,---,0.00,VWS V14.01,2013-03-15 21:45:00,
2013-03-15 14:47:00,56.7,49.6,30.17,SSW,194,1.0,3.0,77,0.00,,---,0.00,VWS V14.01,2013-03-15 21:47:00,
2013-03-15 14:50:00,57.0,49.5,30.17,SSW,207,3.0,9.0,76,0.00,,---,0.00,VWS V14.01,2013-03-15 21:50:00,
2013-03-15 14:52:00,57.1,49.6,30.17,SW,229,4.0,4.0,76,0.00,,---,0.00,VWS V14.01,2013-03-15 21:52:00,
2013-03-15 14:55:00,57.4,49.9,30.17,WSW,249,2.0,8.0,76,0.00,,---,0.00,VWS V14.01,2013-03-15 21:55:00,
2013-03-15 14:57:00,57.4,49.5,30.17,WSW,240,4.0,14.0,75,0.00,,---,0.00,VWS V14.01,2013-03-15 21:57:00,
2013-03-15 15:00:00,57.6,49.4,30.17,SSW,205,3.0,14.0,74,0.00,,---,0.00,VWS V14.01,2013-03-15 22:00:00,
2013-03-15 15:02:00,57.6,49.8,30.17,SW,223,2.0,5.0,75,0.00,,---,0.00,VWS V14.01,2013-03-15 22:02:00,
2013-03-15 15:05:00,58.3,50.4,30.17,SSE,163,2.0,6.0,75,0.00,,---,0.00,VWS V14.01,2013-03-15 22:05:00,
2013-03-15 15:07:00,58.2,50.0,30.17,SSW,208,3.0,10.0,74,0.00,,---,0.00,VWS V14.01,2013-03-15 22:07:00,
2013-03-15 15:10:00,57.9,49.7,30.17,SSE,165,5.0,10.0,74,0.00,,---,0.00,VWS V14.01,2013-03-15 22:10:00,
2013-03-15 15:12:00,57.8,49.6,30.16,SW,218,2.0,8.0,74,0.00,,---,0.00,VWS V14.01,2013-03-15 22:12:00,
2013-03-15 15:15:00,58.0,49.8,30.16,SW,222,7.0,8.0,74,0.00,,---,0.00,VWS V14.01,2013-03-15 22:15:00,
2013-03-15 15:17:00,57.9,49.7,30.17,West,266,3.0,9.0,74,0.00,,---,0.00,VWS V14.01,2013-03-15 22:17:00,
2013-03-15 15:20:00,57.9,49.7,30.16,SSE,162,3.0,9.0,74,0.00,,---,0.00,VWS V14.01,2013-03-15 22:20:00,
2013-03-15 15:22:00,58.0,49.8,30.16,WSW,257,3.0,7.0,74,0.00,,---,0.00,VWS V14.01,2013-03-15 22:22:00,
2013-03-15 15:25:00,57.9,49.7,30.17,WSW,248,3.0,8.0,74,0.00,,---,0.00,VWS V14.01,2013-03-15 22:25:00,
2013-03-15 15:27:00,57.8,49.9,30.17,ESE,120,2.0,6.0,75,0.00,,---,0.00,VWS V14.01,2013-03-15 22:27:00,
2013-03-15 15:30:00,57.7,49.5,30.16,SSE,166,3.0,12.0,74,0.00,,---,0.00,VWS V14.01,2013-03-15 22:30:00,
2013-03-15 15:32:00,57.7,49.8,30.16,SSE,162,6.0,6.0,75,0.00,,---,0.00,VWS V14.01,2013-03-15 22:32:00,
2013-03-15 15:35:00,57.4,49.2,30.16,SSE,162,3.0,7.0,74,0.00,,---,0.00,VWS V14.01,2013-03-15 22:35:00,
2013-03-15 15:37:00,57.4,49.5,30.16,SE,146,2.0,5.0,75,0.00,,---,0.00,VWS V14.01,2013-03-15 22:37:00,
2013-03-15 15:40:00,57.3,49.1,30.16,SSE,159,8.0,8.0,74,0.00,,---,0.00,VWS V14.01,2013-03-15 22:40:00,
2013-03-15 15:42:00,57.2,49.4,30.16,South,174,2.0,8.0,75,0.00,,---,0.00,VWS V14.01,2013-03-15 22:42:00,
2013-03-15 15:45:00,57.2,49.4,30.16,SSW,209,2.0,8.0,75,0.00,,---,0.00,VWS V14.01,2013-03-15 22:45:00,
2013-03-15 15:47:00,57.2,49.7,30.16,SSW,212,2.0,3.0,76,0.00,,---,0.00,VWS V14.01,2013-03-15 22:47:00,
2013-03-15 15:50:00,57.5,50.0,30.16,West,261,4.0,5.0,76,0.00,,---,0.00,VWS V14.01,2013-03-15 22:50:00,
2013-03-15 15:52:00,57.6,49.8,30.16,SE,142,2.0,5.0,75,0.00,,---,0.00,VWS V14.01,2013-03-15 22:52:00,
2013-03-15 15:55:00,57.8,49.6,30.16,South,181,2.0,5.0,74,0.00,,---,0.00,VWS V14.01,2013-03-15 22:55:00,
2013-03-15 15:57:00,57.9,49.3,30.16,SSW,213,3.0,4.0,73,0.00,,---,0.00,VWS V14.01,2013-03-15 22:57:00,
2013-03-15 16:00:00,58.0,49.4,30.16,SSE,147,7.0,11.0,73,0.00,,---,0.00,VWS V14.01,2013-03-15 23:00:00,
2013-03-15 16:02:00,57.9,49.3,30.16,SSW,209,6.0,10.0,73,0.00,,---,0.00,VWS V14.01,2013-03-15 23:02:00,
2013-03-15 16:05:00,57.8,49.6,30.16,West,270,2.0,10.0,74,0.00,,---,0.00,VWS V14.01,2013-03-15 23:05:00,
2013-03-15 16:07:00,57.7,49.5,30.16,WSW,257,1.0,6.0,74,0.00,,---,0.00,VWS V14.01,2013-03-15 23:07:00,
2013-03-15 16:10:00,58.0,49.8,30.16,WSW,244,5.0,7.0,74,0.00,,---,0.00,VWS V14.01,2013-03-15 23:10:00,
2013-03-15 16:12:00,58.0,49.8,30.16,SSE,153,7.0,8.0,74,0.00,,---,0.00,VWS V14.01,2013-03-15 23:12:00,
2013-03-15 16:15:00,58.0,49.8,30.16,SSE,152,1.0,8.0,74,0.00,,---,0.00,VWS V14.01,2013-03-15 23:15:00,
2013-03-15 16:17:00,58.0,49.4,30.16,SE,131,2.0,5.0,73,0.00,,---,0.00,VWS V14.01,2013-03-15 23:17:00,
2013-03-15 16:20:00,58.1,49.5,30.16,SW,233,5.0,11.0,73,0.00,,---,0.00,VWS V14.01,2013-03-15 23:20:00,
2013-03-15 16:22:00,58.0,49.4,30.16,SSW,207,2.0,10.0,73,0.00,,---,0.00,VWS V14.01,2013-03-15 23:22:00,
2013-03-15 16:25:00,57.9,49.3,30.15,SW,229,2.0,10.0,73,0.00,,---,0.00,VWS V14.01,2013-03-15 23:25:00,
2013-03-15 16:27:00,58.0,49.8,30.15,WSW,239,3.0,8.0,74,0.00,,---,0.00,VWS V14.01,2013-03-15 23:27:00,
2013-03-15 16:30:00,58.2,50.0,30.15,SW,224,2.0,8.0,74,0.00,,---,0.00,VWS V14.01,2013-03-15 23:30:00,
2013-03-15 16:32:00,58.2,49.6,30.15,SSE,153,2.0,10.0,73,0.00,,---,0.00,VWS V14.01,2013-03-15 23:32:00,
2013-03-15 16:35:00,58.1,49.5,30.15,SSW,203,1.0,10.0,73,0.00,,---,0.00,VWS V14.01,2013-03-15 23:35:00,
2013-03-15 16:37:00,58.1,49.9,30.16,SSE,157,9.0,11.0,74,0.00,,---,0.00,VWS V14.01,2013-03-15 23:37:00,
2013-03-15 16:40:00,57.8,49.2,30.16,SSW,192,1.0,11.0,73,0.00,,---,0.00,VWS V14.01,2013-03-15 23:40:00,
2013-03-15 16:43:00,57.8,49.6,30.15,SSE,155,10.0,10.0,74,0.00,,---,0.00,VWS V14.01,2013-03-15 23:43:00,
2013-03-15 16:45:00,57.5,49.3,30.15,SSE,162,0.0,10.0,74,0.00,,---,0.00,VWS V14.01,2013-03-15 23:45:00,
2013-03-15 16:48:00,57.5,49.3,30.15,South,184,3.0,7.0,74,0.00,,---,0.00,VWS V14.01,2013-03-15 23:48:00,
2013-03-15 16:50:00,57.3,49.5,30.15,SSE,163,4.0,10.0,75,0.00,,---,0.00,VWS V14.01,2013-03-15 23:50:00,
2013-03-15 16:53:00,57.2,49.4,30.16,SW,229,1.0,4.0,75,0.00,,---,0.00,VWS V14.01,2013-03-15 23:53:00,
2013-03-15 16:55:00,57.1,49.3,30.15,South,174,2.0,6.0,75,0.00,,---,0.00,VWS V14.01,2013-03-15 23:55:00,
2013-03-15 16:58:00,57.0,49.5,30.15,SW,221,3.0,5.0,76,0.00,,---,0.00,VWS V14.01,2013-03-15 23:58:00,
2013-03-15 17:00:00,56.8,49.3,30.15,SSW,200,1.0,9.0,76,0.00,,---,0.00,VWS V14.01,2013-03-16 00:00:00,
2013-03-15 17:02:00,56.7,49.2,30.15,South,173,1.0,4.0,76,0.00,,---,0.00,VWS V14.01,2013-03-16 00:02:00,
2013-03-15 17:05:00,56.5,49.0,30.15,South,173,2.0,8.0,76,0.00,,---,0.00,VWS V14.01,2013-03-16 00:05:00,
2013-03-15 17:07:00,56.4,49.3,30.15,WSW,251,3.0,7.0,77,0.00,,---,0.00,VWS V14.01,2013-03-16 00:07:00,
2013-03-15 17:10:00,56.1,49.0,30.15,SSE,167,4.0,7.0,77,0.00,,---,0.00,VWS V14.01,2013-03-16 00:10:00,
2013-03-15 17:12:00,56.0,49.2,30.15,SSE,153,4.0,8.0,78,0.00,,---,0.00,VWS V14.01,2013-03-16 00:12:00,
2013-03-15 17:15:00,55.9,49.2,30.15,SW,235,1.0,8.0,78,0.00,,---,0.00,VWS V14.01,2013-03-16 00:15:00,
2013-03-15 17:17:00,55.9,49.2,30.15,South,184,3.0,4.0,78,0.00,,---,0.00,VWS V14.01,2013-03-16 00:17:00,
2013-03-15 17:20:00,55.7,49.3,30.15,South,184,4.0,7.0,79,0.00,,---,0.00,VWS V14.01,2013-03-16 00:20:00,
2013-03-15 17:22:00,55.7,49.0,30.15,WSW,248,1.0,9.0,78,0.00,,---,0.00,VWS V14.01,2013-03-16 00:22:00,
2013-03-15 17:25:00,55.7,49.3,30.15,SSW,205,1.0,9.0,79,0.00,,---,0.00,VWS V14.01,2013-03-16 00:25:00,
2013-03-15 17:27:00,55.6,49.2,30.15,WSW,252,3.0,6.0,79,0.00,,---,0.00,VWS V14.01,2013-03-16 00:27:00,
2013-03-15 17:30:00,55.5,49.1,30.15,SW,219,4.0,6.0,79,0.00,,---,0.00,VWS V14.01,2013-03-16 00:30:00,
2013-03-15 17:32:00,55.5,49.1,30.15,South,169,2.0,4.0,79,0.00,,---,0.00,VWS V14.01,2013-03-16 00:32:00,
2013-03-15 17:35:00,55.5,49.1,30.15,South,174,3.0,5.0,79,0.00,,---,0.00,VWS V14.01,2013-03-16 00:35:00,
2013-03-15 17:37:00,55.5,49.4,30.15,SSE,167,6.0,6.0,80,0.00,,---,0.00,VWS V14.01,2013-03-16 00:37:00,
2013-03-15 17:40:00,55.4,49.0,30.15,WNW,293,3.0,7.0,79,0.00,,---,0.00,VWS V14.01,2013-03-16 00:40:00,
2013-03-15 17:42:00,55.3,48.9,30.15,SSE,150,2.0,11.0,79,0.00,,---,0.00,VWS V14.01,2013-03-16 00:42:00,
2013-03-15 17:45:00,55.2,49.2,30.15,SW,224,0.0,11.0,80,0.00,,---,0.00,VWS V14.01,2013-03-16 00:45:00,
2013-03-15 17:47:00,55.2,49.2,30.15,SW,227,2.0,8.0,80,0.00,,---,0.00,VWS V14.01,2013-03-16 00:47:00,
2013-03-15 17:50:00,55.1,49.0,30.15,WSW,242,5.0,8.0,80,0.00,,---,0.00,VWS V14.01,2013-03-16 00:50:00,
2013-03-15 17:52:00,55.0,49.0,30.15,West,270,3.0,8.0,80,0.00,,---,0.00,VWS V14.01,2013-03-16 00:52:00,
2013-03-15 17:55:00,54.8,48.8,30.14,SSE,160,2.0,8.0,80,0.00,,---,0.00,VWS V14.01,2013-03-16 00:55:00,
2013-03-15 17:57:00,54.7,48.7,30.15,WSW,240,5.0,9.0,80,0.00,,---,0.00,VWS V14.01,2013-03-16 00:57:00,
2013-03-15 18:00:00,54.6,48.9,30.14,WSW,248,5.0,9.0,81,0.00,,---,0.00,VWS V14.01,2013-03-16 01:00:00,
2013-03-15 18:02:00,54.5,48.8,30.14,West,260,2.0,5.0,81,0.00,,---,0.00,VWS V14.01,2013-03-16 01:02:00,
2013-03-15 18:05:00,54.3,48.6,30.15,SW,219,0.0,6.0,81,0.00,,---,0.00,VWS V14.01,2013-03-16 01:05:00,
2013-03-15 18:07:00,54.2,48.2,30.15,WNW,287,2.0,9.0,80,0.00,,---,0.00,VWS V14.01,2013-03-16 01:07:00,
2013-03-15 18:10:00,54.1,48.4,30.15,WSW,251,2.0,9.0,81,0.00,,---,0.00,VWS V14.01,2013-03-16 01:10:00,
2013-03-15 18:12:00,54.0,48.3,30.15,WSW,239,8.0,8.0,81,0.00,,---,0.00,VWS V14.01,2013-03-16 01:12:00,
2013-03-15 18:15:00,53.9,48.2,30.15,SSW,213,1.0,10.0,81,0.00,,---,0.00,VWS V14.01,2013-03-16 01:15:00,
2013-03-15 18:17:00,53.8,48.1,30.15,SSE,150,5.0,7.0,81,0.00,,---,0.00,VWS V14.01,2013-03-16 01:17:00,
2013-03-15 18:20:00,53.7,48.0,30.15,WSW,255,1.0,7.0,81,0.00,,---,0.00,VWS V14.01,2013-03-16 01:20:00,
2013-03-15 18:22:00,53.7,48.0,30.15,West,266,2.0,6.0,81,0.00,,---,0.00,VWS V14.01,2013-03-16 01:22:00,
2013-03-15 18:25:00,53.6,47.9,30.15,SSE,164,2.0,8.0,81,0.00,,---,0.00,VWS V14.01,2013-03-16 01:25:00,
2013-03-15 18:27:00,53.6,47.9,30.15,WSW,243,1.0,5.0,81,0.00,,---,0.00,VWS V14.01,2013-03-16 01:27:00,
2013-03-15 18:30:00,53.5,48.2,30.15,SE,142,0.0,5.0,82,0.00,,---,0.00,VWS V14.01,2013-03-16 01:30:00,
2013-03-15 18:32:00,53.5,48.2,30.15,SSE,152,0.0,1.0,82,0.00,,---,0.00,VWS V14.01,2013-03-16 01:32:00,
2013-03-15 18:35:00,53.4,48.0,30.15,SW,235,0.0,4.0,82,0.00,,---,0.00,VWS V14.01,2013-03-16 01:35:00,
2013-03-15 18:37:00,53.4,48.0,30.15,South,174,1.0,5.0,82,0.00,,---,0.00,VWS V14.01,2013-03-16 01:37:00,
2013-03-15 18:40:00,53.3,48.0,30.15,SSE,166,1.0,5.0,82,0.00,,---,0.00,VWS V14.01,2013-03-16 01:40:00,
2013-03-15 18:42:00,53.3,48.0,30.15,SW,224,3.0,3.0,82,0.00,,---,0.00,VWS V14.01,2013-03-16 01:42:00,
2013-03-15 18:45:00,53.2,47.9,30.15,SW,218,1.0,6.0,82,0.00,,---,0.00,VWS V14.01,2013-03-16 01:45:00,
2013-03-15 18:47:00,53.2,47.9,30.15,WSW,248,2.0,5.0,82,0.00,,---,0.00,VWS V14.01,2013-03-16 01:47:00,
2013-03-15 18:50:00,53.0,47.7,30.15,SSW,197,4.0,10.0,82,0.00,,---,0.00,VWS V14.01,2013-03-16 01:50:00,
2013-03-15 18:52:00,53.0,47.7,30.15,SW,219,2.0,5.0,82,0.00,,---,0.00,VWS V14.01,2013-03-16 01:52:00,
2013-03-15 18:55:00,52.9,47.9,30.15,West,263,3.0,10.0,83,0.00,,---,0.00,VWS V14.01,2013-03-16 01:55:00,
2013-03-15 18:57:00,52.9,47.9,30.15,SSE,160,1.0,6.0,83,0.00,,---,0.00,VWS V14.01,2013-03-16 01:57:00,
2013-03-15 19:00:00,52.8,47.8,30.15,NNW,328,1.0,7.0,83,0.00,,---,0.00,VWS V14.01,2013-03-16 02:00:00,
2013-03-15 19:02:00,52.8,47.8,30.15,SW,214,3.0,6.0,83,0.00,,---,0.00,VWS V14.01,2013-03-16 02:02:00,
2013-03-15 19:05:00,52.6,47.6,30.14,South,186,0.0,9.0,83,0.00,,---,0.00,VWS V14.01,2013-03-16 02:05:00,
2013-03-15 19:07:00,52.5,47.5,30.15,SSE,150,3.0,6.0,83,0.00,,---,0.00,VWS V14.01,2013-03-16 02:07:00,
2013-03-15 19:10:00,52.3,47.3,30.14,SSE,149,3.0,6.0,83,0.00,,---,0.00,VWS V14.01,2013-03-16 02:10:00,
2013-03-15 19:12:00,52.3,47.6,30.14,SSW,194,4.0,8.0,84,0.00,,---,0.00,VWS V14.01,2013-03-16 02:12:00,
2013-03-15 19:15:00,52.1,47.4,30.14,SSE,150,3.0,8.0,84,0.00,,---,0.00,VWS V14.01,2013-03-16 02:15:00,
2013-03-15 19:17:00,52.1,47.4,30.14,SSE,163,2.0,8.0,84,0.00,,---,0.00,VWS V14.01,2013-03-16 02:17:00,
2013-03-15 19:20:00,52.0,47.3,30.14,SSE,161,4.0,8.0,84,0.00,,---,0.00,VWS V14.01,2013-03-16 02:20:00,
2013-03-15 19:22:00,52.0,47.0,30.14,SSE,165,2.0,10.0,83,0.00,,---,0.00,VWS V14.01,2013-03-16 02:22:00,
2013-03-15 19:25:00,51.9,47.2,30.14,SSE,153,3.0,10.0,84,0.00,,---,0.00,VWS V14.01,2013-03-16 02:25:00,
2013-03-15 19:27:00,51.9,47.2,30.14,South,172,6.0,11.0,84,0.00,,---,0.00,VWS V14.01,2013-03-16 02:27:00,
2013-03-15 19:30:00,51.8,47.1,30.14,South,189,1.0,11.0,84,0.00,,---,0.00,VWS V14.01,2013-03-16 02:30:00,
2013-03-15 19:32:00,51.8,47.1,30.14,South,178,1.0,9.0,84,0.00,,---,0.00,VWS V14.01,2013-03-16 02:32:00,
2013-03-15 19:35:00,51.7,47.0,30.14,SSE,147,3.0,9.0,84,0.00,,---,0.00,VWS V14.01,2013-03-16 02:35:00,
2013-03-15 19:37:00,51.7,47.0,30.14,SW,232,0.0,3.0,84,0.00,,---,0.00,VWS V14.01,2013-03-16 02:37:00,
2013-03-15 19:40:00,51.6,46.9,30.14,SE,128,3.0,7.0,84,0.00,,---,0.00,VWS V14.01,2013-03-16 02:40:00,
2013-03-15 19:42:00,51.6,46.9,30.14,SSE,150,7.0,10.0,84,0.00,,---,0.00,VWS V14.01,2013-03-16 02:42:00,
2013-03-15 19:45:00,51.6,46.9,30.14,SSE,165,0.0,10.0,84,0.00,,---,0.00,VWS V14.01,2013-03-16 02:45:00,
2013-03-15 19:47:00,51.6,46.9,30.14,WSW,246,3.0,3.0,84,0.00,,---,0.00,VWS V14.01,2013-03-16 02:47:00,
2013-03-15 19:50:00,51.5,46.8,30.14,SSE,160,0.0,9.0,84,0.00,,---,0.00,VWS V14.01,2013-03-16 02:50:00,
2013-03-15 19:52:00,51.4,46.7,30.14,SSW,194,5.0,5.0,84,0.00,,---,0.00,VWS V14.01,2013-03-16 02:52:00,
2013-03-15 19:55:00,51.4,46.7,30.14,SE,146,2.0,9.0,84,0.00,,---,0.00,VWS V14.01,2013-03-16 02:55:00,
2013-03-15 19:57:00,51.4,46.7,30.14,SE,146,1.0,7.0,84,0.00,,---,0.00,VWS V14.01,2013-03-16 02:57:00,
2013-03-15 20:00:00,51.3,46.6,30.14,South,170,3.0,7.0,84,0.00,,---,0.00,VWS V14.01,2013-03-16 03:00:00,
2013-03-15 20:02:00,51.3,47.0,30.14,WSW,243,2.0,3.0,85,0.00,,---,0.00,VWS V14.01,2013-03-16 03:02:00,
2013-03-15 20:05:00,51.2,46.8,30.14,SE,124,2.0,5.0,85,0.00,,---,0.00,VWS V14.01,2013-03-16 03:05:00,
2013-03-15 20:07:00,51.2,46.8,30.14,South,182,2.0,6.0,85,0.00,,---,0.00,VWS V14.01,2013-03-16 03:07:00,
2013-03-15 20:10:00,51.1,46.8,30.15,SSW,194,6.0,7.0,85,0.00,,---,0.00,VWS V14.01,2013-03-16 03:10:00,
2013-03-15 20:12:00,51.0,46.7,30.14,SSE,147,2.0,9.0,85,0.00,,---,0.00,VWS V14.01,2013-03-16 03:12:00,
2013-03-15 20:15:00,50.9,46.6,30.15,SSE,158,1.0,9.0,85,0.00,,---,0.00,VWS V14.01,2013-03-16 03:15:00,
2013-03-15 20:17:00,50.9,46.6,30.15,West,269,2.0,5.0,85,0.00,,---,0.00,VWS V14.01,2013-03-16 03:17:00,
2013-03-15 20:20:00,50.8,46.8,30.15,WSW,257,3.0,8.0,86,0.00,,---,0.00,VWS V14.01,2013-03-16 03:20:00,
2013-03-15 20:23:00,50.8,46.8,30.15,WNW,287,2.0,4.0,86,0.00,,---,0.00,VWS V14.01,2013-03-16 03:23:00,
2013-03-15 20:25:00,50.7,46.7,30.15,South,189,1.0,4.0,86,0.00,,---,0.00,VWS V14.01,2013-03-16 03:25:00,
2013-03-15 20:28:00,50.7,46.7,30.15,SE,141,3.0,4.0,86,0.00,,---,0.00,VWS V14.01,2013-03-16 03:28:00,
2013-03-15 20:30:00,50.6,46.6,30.14,WSW,245,6.0,6.0,86,0.00,,---,0.00,VWS V14.01,2013-03-16 03:30:00,
2013-03-15 20:32:00,50.6,46.6,30.14,SW,233,1.0,6.0,86,0.00,,---,0.00,VWS V14.01,2013-03-16 03:32:00,
2013-03-15 20:35:00,50.5,46.5,30.14,South,182,3.0,6.0,86,0.00,,---,0.00,VWS V14.01,2013-03-16 03:35:00,
2013-03-15 20:37:00,50.5,46.5,30.14,South,187,2.0,3.0,86,0.00,,---,0.00,VWS V14.01,2013-03-16 03:37:00,
2013-03-15 20:40:00,50.4,46.7,30.15,West,276,3.0,8.0,87,0.00,,---,0.00,VWS V14.01,2013-03-16 03:40:00,
2013-03-15 20:42:00,50.4,46.7,30.14,WSW,250,1.0,4.0,87,0.00,,---,0.00,VWS V14.01,2013-03-16 03:42:00,
2013-03-15 20:45:00,50.3,46.6,30.15,SW,229,1.0,5.0,87,0.00,,---,0.00,VWS V14.01,2013-03-16 03:45:00,
2013-03-15 20:47:00,50.3,46.6,30.15,West,267,1.0,1.0,87,0.00,,---,0.00,VWS V14.01,2013-03-16 03:47:00,
2013-03-15 20:50:00,50.3,46.6,30.14,WSW,244,3.0,3.0,87,0.00,,---,0.00,VWS V14.01,2013-03-16 03:50:00,
2013-03-15 20:52:00,50.3,46.6,30.14,WSW,243,3.0,3.0,87,0.00,,---,0.00,VWS V14.01,2013-03-16 03:52:00,
2013-03-15 20:55:00,50.2,46.5,30.14,SW,219,2.0,5.0,87,0.00,,---,0.00,VWS V14.01,2013-03-16 03:55:00,
2013-03-15 20:57:00,50.1,46.4,30.14,WSW,254,0.0,2.0,87,0.00,,---,0.00,VWS V14.01,2013-03-16 03:57:00,
2013-03-15 21:00:00,50.1,46.4,30.14,WSW,238,0.0,4.0,87,0.00,,---,0.00,VWS V14.01,2013-03-16 04:00:00,
2013-03-15 21:05:00,50.0,46.6,30.14,SW,228,0.0,6.0,88,0.00,,---,0.00,VWS V14.01,2013-03-16 04:05:00,
2013-03-15 21:10:00,49.8,46.4,30.15,SSW,196,0.0,4.0,88,0.00,,---,0.00,VWS V14.01,2013-03-16 04:10:00,
2013-03-15 21:15:00,49.6,46.5,30.14,SSW,200,2.0,4.0,89,0.00,,---,0.00,VWS V14.01,2013-03-16 04:15:00,
2013-03-15 21:20:00,49.4,46.3,30.15,SW,233,1.0,6.0,89,0.00,,---,0.00,VWS V14.01,2013-03-16 04:20:00,
2013-03-15 21:25:00,49.3,46.2,30.15,SSW,211,2.0,4.0,89,0.00,,---,0.00,VWS V14.01,2013-03-16 04:25:00,
2013-03-15 21:30:00,49.2,46.1,30.15,SE,146,1.0,4.0,89,0.00,,---,0.00,VWS V14.01,2013-03-16 04:30:00,
2013-03-15 21:35:00,49.1,46.0,30.15,South,185,2.0,3.0,89,0.00,,---,0.00,VWS V14.01,2013-03-16 04:35:00,
2013-03-15 21:40:00,49.0,45.9,30.15,WNW,296,2.0,4.0,89,0.00,,---,0.00,VWS V14.01,2013-03-16 04:40:00,
2013-03-15 21:45:00,48.9,45.8,30.15,West,279,4.0,5.0,89,0.00,,---,0.00,VWS V14.01,2013-03-16 04:45:00,
2013-03-15 21:50:00,48.8,46.0,30.15,SW,233,0.0,5.0,90,0.00,,---,0.00,VWS V14.01,2013-03-16 04:50:00,
2013-03-15 21:55:00,48.8,45.7,30.15,SW,229,4.0,6.0,89,0.00,,---,0.00,VWS V14.01,2013-03-16 04:55:00,
2013-03-15 22:00:00,48.7,45.6,30.15,SSE,150,3.0,6.0,89,0.00,,---,0.00,VWS V14.01,2013-03-16 05:00:00,
2013-03-15 22:05:00,48.7,45.6,30.15,SSE,154,4.0,5.0,89,0.00,,---,0.00,VWS V14.01,2013-03-16 05:05:00,
2013-03-15 22:10:00,48.8,45.4,30.14,SSW,193,2.0,5.0,88,0.00,,---,0.00,VWS V14.01,2013-03-16 05:10:00,
2013-03-15 22:15:00,48.8,45.4,30.14,South,191,2.0,6.0,88,0.00,,---,0.00,VWS V14.01,2013-03-16 05:15:00,
2013-03-15 22:20:00,48.7,45.3,30.14,SSE,155,2.0,7.0,88,0.00,,---,0.00,VWS V14.01,2013-03-16 05:20:00,
2013-03-15 22:25:00,48.6,45.2,30.14,SSE,157,1.0,5.0,88,0.00,,---,0.00,VWS V14.01,2013-03-16 05:25:00,
2013-03-15 22:30:00,48.5,45.1,30.14,SSE,155,3.0,7.0,88,0.00,,---,0.00,VWS V14.01,2013-03-16 05:30:00,
2013-03-15 22:35:00,48.4,45.0,30.14,SSE,167,4.0,8.0,88,0.00,,---,0.00,VWS V14.01,2013-03-16 05:35:00,
2013-03-15 22:40:00,48.4,45.0,30.14,South,187,2.0,6.0,88,0.00,,---,0.00,VWS V14.01,2013-03-16 05:40:00,
2013-03-15 22:45:00,48.3,44.9,30.14,SSE,164,4.0,6.0,88,0.00,,---,0.00,VWS V14.01,2013-03-16 05:45:00,
2013-03-15 22:50:00,48.3,45.2,30.14,SW,217,0.0,5.0,89,0.00,,---,0.00,VWS V14.01,2013-03-16 05:50:00,
2013-03-15 22:55:00,48.3,45.2,30.14,SSE,167,3.0,6.0,89,0.00,,---,0.00,VWS V14.01,2013-03-16 05:55:00,
2013-03-15 23:00:00,48.3,45.2,30.14,SE,145,2.0,6.0,89,0.00,,---,0.00,VWS V14.01,2013-03-16 06:00:00,
2013-03-15 23:05:00,48.3,45.2,30.14,South,169,4.0,7.0,89,0.00,,---,0.00,VWS V14.01,2013-03-16 06:05:00,
2013-03-15 23:10:00,48.2,45.1,30.14,SE,127,1.0,9.0,89,0.00,,---,0.00,VWS V14.01,2013-03-16 06:10:00,
2013-03-15 23:15:00,48.1,45.3,30.14,SSE,155,1.0,7.0,90,0.00,,---,0.00,VWS V14.01,2013-03-16 06:15:00,
2013-03-15 23:20:00,48.0,45.2,30.14,South,182,2.0,7.0,90,0.00,,---,0.00,VWS V14.01,2013-03-16 06:20:00,
2013-03-15 23:25:00,47.9,45.1,30.14,SSE,159,0.0,3.0,90,0.00,,---,0.00,VWS V14.01,2013-03-16 06:25:00,
2013-03-15 23:30:00,47.9,45.1,30.14,South,172,2.0,5.0,90,0.00,,---,0.00,VWS V14.01,2013-03-16 06:30:00,
2013-03-15 23:35:00,47.8,45.0,30.14,SSW,195,5.0,5.0,90,0.00,,---,0.00,VWS V14.01,2013-03-16 06:35:00,
2013-03-15 23:40:00,47.9,45.1,30.14,South,188,0.0,5.0,90,0.00,,---,0.00,VWS V14.01,2013-03-16 06:40:00,
2013-03-15 23:45:00,47.9,45.1,30.13,SSE,161,3.0,6.0,90,0.00,,---,0.00,VWS V14.01,2013-03-16 06:45:00,
2013-03-15 23:50:00,47.9,45.1,30.14,SSW,207,0.0,6.0,90,0.00,,---,0.00,VWS V14.01,2013-03-16 06:50:00,
2013-03-15 23:55:00,47.9,45.1,30.14,SSE,154,5.0,8.0,90,0.00,,---,0.00,VWS V14.01,2013-03-16 06:55:00,